Terminal Aerodrome Forecast
Issued by NWS Detroit/Pontiac, MI

Home | Current Version | Previous Version | Text Only | Print | Product List | Glossary On
Versions: 1 2 3 4 5 6 7 8 9 10 11 12 13 14 15 16 17 18 19
842
FTUS43 KDTX 091131
TAFFNT
TAF
KFNT 091131Z 0912/1012 29010KT P6SM BKN070
     FM091400 28012G19KT P6SM SCT025 BKN040
     FM091900 28011G19KT P6SM -SHSN BKN025
     FM100100 26008KT P6SM BKN025
     FM100800 26008KT P6SM SCT018 OVC080=

USA.gov is the U.S. government's official web portal to all federal, state and local government web resources and services.